This is the latest recevied weather packets stored in our database for station/object DC1MAK-13. If no packets are shown the sender has not sent any weather packets the latest 10 day(s).
| Time | Temp. | Humidity | Pressure | Rain* | Wind** | Luminosity | Snow |
|---|---|---|---|---|---|---|---|
| 1777974504 | 19.44° C | 55% | 978.6 hPa | - | - | - | - |
| 1777973899 | 19.44° C | 57% | 978.6 hPa | - | - | - | - |
| 1777973599 | 20° C | 55% | 978.6 hPa | - | - | - | - |
| 1777973289 | 20° C | 55% | 978.6 hPa | - | - | - | - |
| 1777972986 | 20° C | 55% | 978.7 hPa | - | - | - | - |
| 1777972079 | 18.89° C | 59% | 978.8 hPa | - | - | - | - |
| 1777971771 | 18.33° C | 58% | 978.8 hPa | - | - | - | - |
| 1777971468 | 18.33° C | 58% | 978.9 hPa | - | - | - | - |
| 1777971164 | 18.89° C | 58% | 978.8 hPa | - | - | - | - |
| 1777970259 | 18.33° C | 60% | 979 hPa | - | - | - | - |
| 1777969950 | 18.33° C | 60% | 979 hPa | - | - | - | - |
| 1777969646 | 18.33° C | 61% | 979 hPa | - | - | - | - |
| 1777969342 | 18.33° C | 62% | 979 hPa | - | - | - | - |
| 1777968739 | 17.78° C | 64% | 979.1 hPa | - | - | - | - |
| 1777968432 | 17.22° C | 64% | 979.1 hPa | - | - | - | - |
| 1777968128 | 17.78° C | 64% | 979.2 hPa | - | - | - | - |
| 1777967824 | 17.78° C | 65% | 979.1 hPa | - | - | - | - |
| 1777967219 | 17.78° C | 65% | 979.2 hPa | - | - | - | - |
| 1777966610 | 17.22° C | 65% | 979.2 hPa | - | - | - | - |
| 1777966306 | 16.67° C | 66% | 979.2 hPa | - | - | - | - |
| 1777966003 | 16.67° C | 66% | 979.3 hPa | - | - | - | - |
| 1777965399 | 17.22° C | 67% | 979.4 hPa | - | - | - | - |
| 1777965092 | 17.22° C | 67% | 979.3 hPa | - | - | - | - |
| 1777964789 | 17.22° C | 69% | 979.4 hPa | - | - | - | - |
| 1777964485 | 16.67° C | 70% | 979.4 hPa | - | - | - | - |
* Rain since midnight (hover to see other rain measurements)
** Current wind speed in m/s (hover to see current wind gust speed)